sensor_id;sensor_type;location;lat;lon;timestamp;P1;durP1;ratioP1;P2;durP2;ratioP2
56680;SDS011;42558;52.388;13.390;2023-01-31T00:01:40;21.09;;;4.56;;
56680;SDS011;42558;52.388;13.390;2023-01-31T00:04:11;23.75;;;4.37;;
56680;SDS011;42558;52.388;13.390;2023-01-31T00:06:43;20.52;;;4.37;;
56680;SDS011;42558;52.388;13.390;2023-01-31T00:09:19;20.14;;;4.37;;
56680;SDS011;42558;52.388;13.390;2023-01-31T00:11:50;15.39;;;4.75;;
56680;SDS011;42558;52.388;13.390;2023-01-31T00:14:20;12.54;;;3.04;;
56680;SDS011;42558;52.388;13.390;2023-01-31T00:16:50;21.66;;;3.99;;
56680;SDS011;42558;52.388;13.390;2023-01-31T00:19:20;18.81;;;3.61;;
56680;SDS011;42558;52.388;13.390;2023-01-31T00:21:52;18.81;;;3.42;;
56680;SDS011;42558;52.388;13.390;2023-01-31T00:24:22;19.38;;;3.42;;
56680;SDS011;42558;52.388;13.390;2023-01-31T00:26:52;21.28;;;3.99;;
56680;SDS011;42558;52.388;13.390;2023-01-31T00:29:25;16.34;;;3.04;;
56680;SDS011;42558;52.388;13.390;2023-01-31T00:31:55;19.57;;;3.80;;
56680;SDS011;42558;52.388;13.390;2023-01-31T00:34:25;24.51;;;4.56;;
56680;SDS011;42558;52.388;13.390;2023-01-31T00:36:55;19.76;;;3.42;;
56680;SDS011;42558;52.388;13.390;2023-01-31T00:47:30;18.24;;;3.99;;
56680;SDS011;42558;52.388;13.390;2023-01-31T00:49:59;13.68;;;3.04;;
56680;SDS011;42558;52.388;13.390;2023-01-31T00:52:29;18.81;;;3.23;;
56680;SDS011;42558;52.388;13.390;2023-01-31T00:55:00;19.38;;;3.61;;
56680;SDS011;42558;52.388;13.390;2023-01-31T00:57:30;18.81;;;3.42;;
56680;SDS011;42558;52.388;13.390;2023-01-31T00:59:58;14.44;;;2.66;;
56680;SDS011;42558;52.388;13.390;2023-01-31T01:02:27;17.10;;;3.80;;
56680;SDS011;42558;52.388;13.390;2023-01-31T01:04:55;16.91;;;3.04;;
56680;SDS011;42558;52.388;13.390;2023-01-31T01:07:24;12.92;;;3.42;;
56680;SDS011;42558;52.388;13.390;2023-01-31T01:09:52;18.24;;;3.80;;
56680;SDS011;42558;52.388;13.390;2023-01-31T01:12:21;20.71;;;4.37;;
56680;SDS011;42558;52.388;13.390;2023-01-31T01:14:49;14.63;;;3.99;;
56680;SDS011;42558;52.388;13.390;2023-01-31T01:17:18;12.16;;;2.47;;
56680;SDS011;42558;52.388;13.390;2023-01-31T01:19:46;14.06;;;3.23;;
56680;SDS011;42558;52.388;13.390;2023-01-31T01:22:14;19.19;;;3.04;;
56680;SDS011;42558;52.388;13.390;2023-01-31T01:24:44;16.91;;;3.04;;
56680;SDS011;42558;52.388;13.390;2023-01-31T01:27:12;13.87;;;2.66;;
56680;SDS011;42558;52.388;13.390;2023-01-31T01:29:40;15.58;;;2.85;;
56680;SDS011;42558;52.388;13.390;2023-01-31T01:32:08;20.14;;;3.99;;
56680;SDS011;42558;52.388;13.390;2023-01-31T01:34:37;13.87;;;3.61;;
56680;SDS011;42558;52.388;13.390;2023-01-31T01:37:08;18.43;;;3.61;;
56680;SDS011;42558;52.388;13.390;2023-01-31T01:39:40;16.15;;;3.80;;
56680;SDS011;42558;52.388;13.390;2023-01-31T01:42:15;16.15;;;3.23;;
56680;SDS011;42558;52.388;13.390;2023-01-31T01:44:55;18.81;;;3.61;;
56680;SDS011;42558;52.388;13.390;2023-01-31T01:47:56;15.77;;;3.61;;
56680;SDS011;42558;52.388;13.390;2023-01-31T01:50:30;18.24;;;3.42;;
56680;SDS011;42558;52.388;13.390;2023-01-31T01:53:11;20.71;;;3.99;;
56680;SDS011;42558;52.388;13.390;2023-01-31T01:55:54;14.82;;;2.28;;
56680;SDS011;42558;52.388;13.390;2023-01-31T01:58:51;17.10;;;3.23;;
56680;SDS011;42558;52.388;13.390;2023-01-31T02:01:24;12.92;;;1.90;;
56680;SDS011;42558;52.388;13.390;2023-01-31T02:03:57;16.53;;;3.04;;
56680;SDS011;42558;52.388;13.390;2023-01-31T02:06:26;18.62;;;2.85;;
56680;SDS011;42558;52.388;13.390;2023-01-31T02:08:57;14.63;;;3.42;;
56680;SDS011;42558;52.388;13.390;2023-01-31T02:11:30;16.53;;;3.04;;
56680;SDS011;42558;52.388;13.390;2023-01-31T02:14:07;13.11;;;3.04;;
56680;SDS011;42558;52.388;13.390;2023-01-31T02:16:38;27.36;;;4.18;;
56680;SDS011;42558;52.388;13.390;2023-01-31T02:19:15;12.92;;;3.04;;
56680;SDS011;42558;52.388;13.390;2023-01-31T02:27:45;11.02;;;2.85;;
56680;SDS011;42558;52.388;13.390;2023-01-31T02:42:41;16.53;;;3.42;;
56680;SDS011;42558;52.388;13.390;2023-01-31T02:45:30;18.43;;;3.99;;
56680;SDS011;42558;52.388;13.390;2023-01-31T02:48:28;12.54;;;2.85;;
56680;SDS011;42558;52.388;13.390;2023-01-31T02:51:13;12.92;;;2.85;;
56680;SDS011;42558;52.388;13.390;2023-01-31T02:54:02;15.77;;;3.61;;
56680;SDS011;42558;52.388;13.390;2023-01-31T02:56:51;10.83;;;2.85;;
56680;SDS011;42558;52.388;13.390;2023-01-31T02:59:23;16.15;;;2.09;;
56680;SDS011;42558;52.388;13.390;2023-01-31T03:01:58;19.19;;;3.42;;
56680;SDS011;42558;52.388;13.390;2023-01-31T03:04:32;14.25;;;2.47;;
56680;SDS011;42558;52.388;13.390;2023-01-31T03:07:09;16.91;;;2.85;;
56680;SDS011;42558;52.388;13.390;2023-01-31T03:10:18;15.01;;;3.99;;
56680;SDS011;42558;52.388;13.390;2023-01-31T03:13:33;17.86;;;2.28;;
56680;SDS011;42558;52.388;13.390;2023-01-31T03:16:27;15.96;;;2.85;;
56680;SDS011;42558;52.388;13.390;2023-01-31T03:19:32;19.38;;;3.42;;
56680;SDS011;42558;52.388;13.390;2023-01-31T03:22:14;16.91;;;2.85;;
56680;SDS011;42558;52.388;13.390;2023-01-31T03:24:52;13.87;;;2.47;;
56680;SDS011;42558;52.388;13.390;2023-01-31T03:27:23;13.87;;;2.85;;
56680;SDS011;42558;52.388;13.390;2023-01-31T03:29:57;15.20;;;2.85;;
56680;SDS011;42558;52.388;13.390;2023-01-31T03:32:38;16.15;;;3.23;;
56680;SDS011;42558;52.388;13.390;2023-01-31T03:35:13;17.10;;;2.66;;
56680;SDS011;42558;52.388;13.390;2023-01-31T03:37:51;14.44;;;2.66;;
56680;SDS011;42558;52.388;13.390;2023-01-31T03:40:30;14.63;;;2.47;;
56680;SDS011;42558;52.388;13.390;2023-01-31T03:46:22;13.68;;;3.23;;
56680;SDS011;42558;52.388;13.390;2023-01-31T03:49:02;14.25;;;2.85;;
56680;SDS011;42558;52.388;13.390;2023-01-31T03:51:41;15.20;;;2.66;;
56680;SDS011;42558;52.388;13.390;2023-01-31T03:54:19;9.50;;;2.47;;
56680;SDS011;42558;52.388;13.390;2023-01-31T03:59:38;14.44;;;3.04;;
56680;SDS011;42558;52.388;13.390;2023-01-31T04:02:15;9.69;;;2.28;;
56680;SDS011;42558;52.388;13.390;2023-01-31T04:04:54;19.38;;;3.23;;
56680;SDS011;42558;52.388;13.390;2023-01-31T04:07:27;18.62;;;3.42;;
56680;SDS011;42558;52.388;13.390;2023-01-31T04:09:57;16.91;;;2.85;;
56680;SDS011;42558;52.388;13.390;2023-01-31T04:12:27;17.10;;;3.42;;
56680;SDS011;42558;52.388;13.390;2023-01-31T04:14:56;29.83;;;3.80;;
56680;SDS011;42558;52.388;13.390;2023-01-31T04:17:27;30.21;;;3.80;;
56680;SDS011;42558;52.388;13.390;2023-01-31T04:19:57;22.80;;;3.61;;
56680;SDS011;42558;52.388;13.390;2023-01-31T04:22:26;22.61;;;3.42;;
56680;SDS011;42558;52.388;13.390;2023-01-31T04:24:56;18.24;;;2.85;;
56680;SDS011;42558;52.388;13.390;2023-01-31T04:27:26;14.25;;;3.04;;
56680;SDS011;42558;52.388;13.390;2023-01-31T04:29:56;13.68;;;3.04;;
56680;SDS011;42558;52.388;13.390;2023-01-31T04:32:26;16.34;;;3.04;;
56680;SDS011;42558;52.388;13.390;2023-01-31T04:34:57;21.66;;;3.23;;
56680;SDS011;42558;52.388;13.390;2023-01-31T04:37:28;15.39;;;3.80;;
56680;SDS011;42558;52.388;13.390;2023-01-31T04:39:56;19.19;;;3.23;;
56680;SDS011;42558;52.388;13.390;2023-01-31T04:42:25;17.86;;;2.47;;
56680;SDS011;42558;52.388;13.390;2023-01-31T04:44:54;13.87;;;2.47;;
56680;SDS011;42558;52.388;13.390;2023-01-31T04:47:22;15.58;;;2.66;;
56680;SDS011;42558;52.388;13.390;2023-01-31T04:49:51;12.16;;;3.23;;
56680;SDS011;42558;52.388;13.390;2023-01-31T04:52:18;17.67;;;3.99;;
56680;SDS011;42558;52.388;13.390;2023-01-31T04:54:45;23.56;;;3.61;;
56680;SDS011;42558;52.388;13.390;2023-01-31T04:57:13;15.77;;;2.09;;
56680;SDS011;42558;52.388;13.390;2023-01-31T04:59:42;18.62;;;3.42;;
56680;SDS011;42558;52.388;13.390;2023-01-31T05:02:11;21.28;;;4.18;;
56680;SDS011;42558;52.388;13.390;2023-01-31T05:04:42;24.13;;;3.80;;
56680;SDS011;42558;52.388;13.390;2023-01-31T05:07:10;13.30;;;2.66;;
56680;SDS011;42558;52.388;13.390;2023-01-31T05:09:39;18.43;;;2.47;;
56680;SDS011;42558;52.388;13.390;2023-01-31T05:12:11;13.68;;;2.47;;
56680;SDS011;42558;52.388;13.390;2023-01-31T05:14:42;17.29;;;3.23;;
56680;SDS011;42558;52.388;13.390;2023-01-31T05:17:10;15.58;;;2.47;;
56680;SDS011;42558;52.388;13.390;2023-01-31T05:19:39;16.53;;;2.66;;
56680;SDS011;42558;52.388;13.390;2023-01-31T05:22:10;12.73;;;2.47;;
56680;SDS011;42558;52.388;13.390;2023-01-31T05:24:37;15.96;;;2.85;;
56680;SDS011;42558;52.388;13.390;2023-01-31T05:27:05;18.24;;;3.99;;
56680;SDS011;42558;52.388;13.390;2023-01-31T05:29:36;12.35;;;3.23;;
56680;SDS011;42558;52.388;13.390;2023-01-31T05:32:03;21.85;;;3.61;;
56680;SDS011;42558;52.388;13.390;2023-01-31T05:34:34;18.05;;;3.61;;
56680;SDS011;42558;52.388;13.390;2023-01-31T05:37:04;12.16;;;3.04;;
56680;SDS011;42558;52.388;13.390;2023-01-31T05:39:34;17.86;;;3.61;;
56680;SDS011;42558;52.388;13.390;2023-01-31T05:42:05;16.53;;;3.23;;
56680;SDS011;42558;52.388;13.390;2023-01-31T05:44:35;15.01;;;3.23;;
56680;SDS011;42558;52.388;13.390;2023-01-31T05:47:05;18.62;;;3.61;;
56680;SDS011;42558;52.388;13.390;2023-01-31T05:49:35;19.95;;;3.04;;
56680;SDS011;42558;52.388;13.390;2023-01-31T05:52:05;16.91;;;3.23;;
56680;SDS011;42558;52.388;13.390;2023-01-31T05:54:35;13.68;;;3.99;;
56680;SDS011;42558;52.388;13.390;2023-01-31T05:57:05;25.65;;;3.42;;
56680;SDS011;42558;52.388;13.390;2023-01-31T05:59:35;12.35;;;3.42;;
56680;SDS011;42558;52.388;13.390;2023-01-31T06:02:04;16.91;;;3.04;;
56680;SDS011;42558;52.388;13.390;2023-01-31T06:04:34;22.42;;;3.42;;
56680;SDS011;42558;52.388;13.390;2023-01-31T06:07:04;18.81;;;3.61;;
56680;SDS011;42558;52.388;13.390;2023-01-31T06:09:34;16.53;;;3.61;;
56680;SDS011;42558;52.388;13.390;2023-01-31T06:12:12;25.46;;;4.18;;
56680;SDS011;42558;52.388;13.390;2023-01-31T06:14:42;20.14;;;3.61;;
56680;SDS011;42558;52.388;13.390;2023-01-31T06:17:14;22.42;;;3.23;;
56680;SDS011;42558;52.388;13.390;2023-01-31T06:19:42;22.61;;;3.99;;
56680;SDS011;42558;52.388;13.390;2023-01-31T06:22:11;23.94;;;4.37;;
56680;SDS011;42558;52.388;13.390;2023-01-31T06:24:39;22.61;;;4.56;;
56680;SDS011;42558;52.388;13.390;2023-01-31T06:27:08;16.15;;;3.23;;
56680;SDS011;42558;52.388;13.390;2023-01-31T06:29:36;18.62;;;2.85;;
56680;SDS011;42558;52.388;13.390;2023-01-31T06:32:04;19.95;;;2.66;;
56680;SDS011;42558;52.388;13.390;2023-01-31T06:34:33;26.03;;;3.80;;
56680;SDS011;42558;52.388;13.390;2023-01-31T06:37:01;17.86;;;3.61;;
56680;SDS011;42558;52.388;13.390;2023-01-31T06:39:30;19.95;;;3.04;;
56680;SDS011;42558;52.388;13.390;2023-01-31T06:41:58;30.97;;;4.75;;
56680;SDS011;42558;52.388;13.390;2023-01-31T06:44:26;22.99;;;4.18;;
56680;SDS011;42558;52.388;13.390;2023-01-31T06:46:55;16.15;;;3.61;;
56680;SDS011;42558;52.388;13.390;2023-01-31T06:49:23;17.48;;;3.99;;
56680;SDS011;42558;52.388;13.390;2023-01-31T06:51:52;13.68;;;2.28;;
56680;SDS011;42558;52.388;13.390;2023-01-31T06:54:20;21.66;;;3.42;;
56680;SDS011;42558;52.388;13.390;2023-01-31T06:56:48;19.95;;;3.80;;
56680;SDS011;42558;52.388;13.390;2023-01-31T06:59:17;14.44;;;2.09;;
56680;SDS011;42558;52.388;13.390;2023-01-31T07:01:45;16.53;;;2.85;;
56680;SDS011;42558;52.388;13.390;2023-01-31T07:04:14;14.25;;;2.85;;
56680;SDS011;42558;52.388;13.390;2023-01-31T07:06:42;22.80;;;3.80;;
56680;SDS011;42558;52.388;13.390;2023-01-31T07:09:11;19.00;;;3.61;;
56680;SDS011;42558;52.388;13.390;2023-01-31T07:11:39;16.15;;;2.66;;
56680;SDS011;42558;52.388;13.390;2023-01-31T07:14:07;17.29;;;3.23;;
56680;SDS011;42558;52.388;13.390;2023-01-31T07:16:36;13.87;;;2.85;;
56680;SDS011;42558;52.388;13.390;2023-01-31T07:19:04;14.25;;;2.85;;
56680;SDS011;42558;52.388;13.390;2023-01-31T07:21:33;17.67;;;4.18;;
56680;SDS011;42558;52.388;13.390;2023-01-31T07:24:04;14.63;;;3.61;;
56680;SDS011;42558;52.388;13.390;2023-01-31T07:26:32;17.67;;;3.80;;
56680;SDS011;42558;52.388;13.390;2023-01-31T07:29:01;12.16;;;2.66;;
56680;SDS011;42558;52.388;13.390;2023-01-31T07:31:29;18.81;;;3.42;;
56680;SDS011;42558;52.388;13.390;2023-01-31T07:33:58;23.75;;;4.37;;
56680;SDS011;42558;52.388;13.390;2023-01-31T07:36:26;20.33;;;4.18;;
56680;SDS011;42558;52.388;13.390;2023-01-31T07:38:56;21.47;;;4.18;;
56680;SDS011;42558;52.388;13.390;2023-01-31T07:41:26;20.33;;;3.42;;
56680;SDS011;42558;52.388;13.390;2023-01-31T07:43:54;22.04;;;3.80;;
56680;SDS011;42558;52.388;13.390;2023-01-31T07:46:23;17.10;;;3.80;;
56680;SDS011;42558;52.388;13.390;2023-01-31T07:48:51;15.96;;;4.56;;
56680;SDS011;42558;52.388;13.390;2023-01-31T07:51:19;19.00;;;3.99;;
56680;SDS011;42558;52.388;13.390;2023-01-31T07:53:48;18.05;;;3.61;;
56680;SDS011;42558;52.388;13.390;2023-01-31T07:56:18;16.53;;;3.80;;
56680;SDS011;42558;52.388;13.390;2023-01-31T07:58:49;19.95;;;3.61;;
56680;SDS011;42558;52.388;13.390;2023-01-31T08:01:19;27.93;;;4.18;;
56680;SDS011;42558;52.388;13.390;2023-01-31T08:04:12;21.47;;;3.42;;
56680;SDS011;42558;52.388;13.390;2023-01-31T08:06:53;17.48;;;3.42;;
56680;SDS011;42558;52.388;13.390;2023-01-31T08:09:24;16.72;;;3.23;;
56680;SDS011;42558;52.388;13.390;2023-01-31T08:11:54;12.92;;;3.99;;
56680;SDS011;42558;52.388;13.390;2023-01-31T08:14:23;16.53;;;3.42;;
56680;SDS011;42558;52.388;13.390;2023-01-31T08:16:54;23.94;;;4.75;;
56680;SDS011;42558;52.388;13.390;2023-01-31T08:19:25;15.77;;;4.18;;
56680;SDS011;42558;52.388;13.390;2023-01-31T08:21:55;13.68;;;3.23;;
56680;SDS011;42558;52.388;13.390;2023-01-31T08:24:25;14.82;;;3.61;;
56680;SDS011;42558;52.388;13.390;2023-01-31T08:26:55;14.06;;;3.04;;
56680;SDS011;42558;52.388;13.390;2023-01-31T08:29:26;15.58;;;3.80;;
56680;SDS011;42558;52.388;13.390;2023-01-31T08:31:56;15.39;;;3.23;;
56680;SDS011;42558;52.388;13.390;2023-01-31T08:34:26;18.62;;;4.18;;
56680;SDS011;42558;52.388;13.390;2023-01-31T08:36:56;14.44;;;3.42;;
56680;SDS011;42558;52.388;13.390;2023-01-31T08:39:26;15.39;;;3.80;;
56680;SDS011;42558;52.388;13.390;2023-01-31T08:41:56;19.38;;;4.18;;
56680;SDS011;42558;52.388;13.390;2023-01-31T08:44:25;23.37;;;4.18;;
56680;SDS011;42558;52.388;13.390;2023-01-31T08:46:55;18.62;;;4.75;;
56680;SDS011;42558;52.388;13.390;2023-01-31T08:49:27;12.54;;;2.85;;
56680;SDS011;42558;52.388;13.390;2023-01-31T08:51:57;15.20;;;3.80;;
56680;SDS011;42558;52.388;13.390;2023-01-31T08:54:27;18.24;;;3.42;;
56680;SDS011;42558;52.388;13.390;2023-01-31T08:56:57;17.29;;;3.61;;
56680;SDS011;42558;52.388;13.390;2023-01-31T08:59:27;16.15;;;4.18;;
56680;SDS011;42558;52.388;13.390;2023-01-31T09:01:57;19.38;;;4.37;;
56680;SDS011;42558;52.388;13.390;2023-01-31T09:04:27;15.39;;;3.42;;
56680;SDS011;42558;52.388;13.390;2023-01-31T09:06:57;18.24;;;4.56;;
56680;SDS011;42558;52.388;13.390;2023-01-31T09:09:27;19.76;;;4.18;;
56680;SDS011;42558;52.388;13.390;2023-01-31T09:11:58;16.91;;;3.61;;
56680;SDS011;42558;52.388;13.390;2023-01-31T09:14:28;20.33;;;4.56;;
56680;SDS011;42558;52.388;13.390;2023-01-31T09:16:57;14.63;;;3.80;;
56680;SDS011;42558;52.388;13.390;2023-01-31T09:19:25;12.16;;;3.42;;
56680;SDS011;42558;52.388;13.390;2023-01-31T09:21:54;20.71;;;4.75;;
56680;SDS011;42558;52.388;13.390;2023-01-31T09:24:22;17.86;;;4.75;;
56680;SDS011;42558;52.388;13.390;2023-01-31T09:26:51;23.37;;;4.18;;
56680;SDS011;42558;52.388;13.390;2023-01-31T09:29:23;25.27;;;5.13;;
56680;SDS011;42558;52.388;13.390;2023-01-31T09:31:52;17.86;;;3.99;;
56680;SDS011;42558;52.388;13.390;2023-01-31T09:34:20;16.34;;;3.61;;
56680;SDS011;42558;52.388;13.390;2023-01-31T09:36:48;15.39;;;3.80;;
56680;SDS011;42558;52.388;13.390;2023-01-31T09:39:17;17.29;;;3.80;;
56680;SDS011;42558;52.388;13.390;2023-01-31T09:41:50;19.19;;;4.56;;
56680;SDS011;42558;52.388;13.390;2023-01-31T09:44:31;22.42;;;4.56;;
56680;SDS011;42558;52.388;13.390;2023-01-31T09:47:14;18.62;;;3.99;;
56680;SDS011;42558;52.388;13.390;2023-01-31T09:52:56;30.40;;;4.56;;
56680;SDS011;42558;52.388;13.390;2023-01-31T09:55:35;23.37;;;3.99;;
56680;SDS011;42558;52.388;13.390;2023-01-31T10:06:55;18.81;;;3.80;;
56680;SDS011;42558;52.388;13.390;2023-01-31T10:09:40;16.34;;;4.18;;
56680;SDS011;42558;52.388;13.390;2023-01-31T10:12:24;16.91;;;5.51;;
56680;SDS011;42558;52.388;13.390;2023-01-31T10:18:33;14.63;;;3.23;;
56680;SDS011;42558;52.388;13.390;2023-01-31T10:21:12;18.62;;;3.99;;
56680;SDS011;42558;52.388;13.390;2023-01-31T10:24:04;21.28;;;4.18;;
56680;SDS011;42558;52.388;13.390;2023-01-31T10:26:45;26.60;;;3.61;;
56680;SDS011;42558;52.388;13.390;2023-01-31T10:29:44;15.39;;;3.80;;
56680;SDS011;42558;52.388;13.390;2023-01-31T10:32:27;16.53;;;3.42;;
56680;SDS011;42558;52.388;13.390;2023-01-31T10:35:13;26.22;;;3.61;;
56680;SDS011;42558;52.388;13.390;2023-01-31T10:37:50;14.25;;;4.37;;
56680;SDS011;42558;52.388;13.390;2023-01-31T10:40:35;15.39;;;3.80;;
56680;SDS011;42558;52.388;13.390;2023-01-31T10:46:10;15.77;;;3.80;;
56680;SDS011;42558;52.388;13.390;2023-01-31T10:48:43;20.14;;;4.18;;
56680;SDS011;42558;52.388;13.390;2023-01-31T10:51:55;22.99;;;4.75;;
56680;SDS011;42558;52.388;13.390;2023-01-31T10:54:52;16.34;;;3.99;;
56680;SDS011;42558;52.388;13.390;2023-01-31T10:57:34;21.09;;;4.18;;
56680;SDS011;42558;52.388;13.390;2023-01-31T11:00:05;18.81;;;5.13;;
56680;SDS011;42558;52.388;13.390;2023-01-31T11:02:48;14.44;;;3.99;;
56680;SDS011;42558;52.388;13.390;2023-01-31T11:05:20;20.33;;;4.75;;
56680;SDS011;42558;52.388;13.390;2023-01-31T11:07:57;14.82;;;3.99;;
56680;SDS011;42558;52.388;13.390;2023-01-31T11:10:31;12.92;;;4.18;;
56680;SDS011;42558;52.388;13.390;2023-01-31T11:13:03;13.87;;;4.94;;
56680;SDS011;42558;52.388;13.390;2023-01-31T11:15:38;17.10;;;4.75;;
56680;SDS011;42558;52.388;13.390;2023-01-31T11:18:25;13.30;;;3.99;;
56680;SDS011;42558;52.388;13.390;2023-01-31T11:20:58;17.48;;;5.13;;
56680;SDS011;42558;52.388;13.390;2023-01-31T11:23:31;21.66;;;4.94;;
56680;SDS011;42558;52.388;13.390;2023-01-31T11:26:03;15.58;;;4.94;;
56680;SDS011;42558;52.388;13.390;2023-01-31T11:28:36;15.77;;;4.94;;
56680;SDS011;42558;52.388;13.390;2023-01-31T11:31:19;19.00;;;5.70;;
56680;SDS011;42558;52.388;13.390;2023-01-31T11:34:01;24.70;;;5.70;;
56680;SDS011;42558;52.388;13.390;2023-01-31T11:36:41;22.23;;;5.32;;
56680;SDS011;42558;52.388;13.390;2023-01-31T11:39:34;26.41;;;5.70;;
56680;SDS011;42558;52.388;13.390;2023-01-31T11:42:16;16.34;;;5.32;;
56680;SDS011;42558;52.388;13.390;2023-01-31T11:47:40;15.20;;;4.56;;
56680;SDS011;42558;52.388;13.390;2023-01-31T11:50:24;17.67;;;5.13;;
56680;SDS011;42558;52.388;13.390;2023-01-31T11:52:59;19.19;;;5.51;;
56680;SDS011;42558;52.388;13.390;2023-01-31T11:55:36;16.91;;;4.56;;
56680;SDS011;42558;52.388;13.390;2023-01-31T11:58:31;20.71;;;4.56;;
56680;SDS011;42558;52.388;13.390;2023-01-31T12:01:18;14.06;;;4.18;;
56680;SDS011;42558;52.388;13.390;2023-01-31T12:03:55;16.53;;;4.75;;
56680;SDS011;42558;52.388;13.390;2023-01-31T12:06:38;21.09;;;4.37;;
56680;SDS011;42558;52.388;13.390;2023-01-31T12:09:22;17.10;;;3.80;;
56680;SDS011;42558;52.388;13.390;2023-01-31T12:11:55;21.85;;;6.46;;
56680;SDS011;42558;52.388;13.390;2023-01-31T12:14:40;17.48;;;5.51;;
56680;SDS011;42558;52.388;13.390;2023-01-31T12:17:17;23.94;;;5.51;;
56680;SDS011;42558;52.388;13.390;2023-01-31T12:20:22;16.91;;;4.56;;
56680;SDS011;42558;52.388;13.390;2023-01-31T12:26:09;17.86;;;6.08;;
56680;SDS011;42558;52.388;13.390;2023-01-31T12:29:35;20.90;;;5.51;;
56680;SDS011;42558;52.388;13.390;2023-01-31T12:35:37;15.96;;;6.08;;
56680;SDS011;42558;52.388;13.390;2023-01-31T12:38:38;20.90;;;6.65;;
56680;SDS011;42558;52.388;13.390;2023-01-31T12:44:49;33.44;;;8.17;;
56680;SDS011;42558;52.388;13.390;2023-01-31T13:05:33;15.58;;;5.70;;
56680;SDS011;42558;52.388;13.390;2023-01-31T13:08:17;22.42;;;7.41;;
56680;SDS011;42558;52.388;13.390;2023-01-31T13:10:55;17.48;;;7.60;;
56680;SDS011;42558;52.388;13.390;2023-01-31T13:13:30;20.90;;;6.84;;
56680;SDS011;42558;52.388;13.390;2023-01-31T13:16:12;23.37;;;6.65;;
56680;SDS011;42558;52.388;13.390;2023-01-31T13:18:53;22.80;;;8.55;;
56680;SDS011;42558;52.388;13.390;2023-01-31T13:21:32;15.96;;;5.51;;
56680;SDS011;42558;52.388;13.390;2023-01-31T13:24:20;13.87;;;5.70;;
56680;SDS011;42558;52.388;13.390;2023-01-31T13:27:09;15.01;;;6.27;;
56680;SDS011;42558;52.388;13.390;2023-01-31T13:29:59;21.28;;;7.03;;
56680;SDS011;42558;52.388;13.390;2023-01-31T13:32:48;21.85;;;6.27;;
56680;SDS011;42558;52.388;13.390;2023-01-31T13:35:38;18.81;;;7.79;;
56680;SDS011;42558;52.388;13.390;2023-01-31T13:38:15;17.67;;;6.84;;
56680;SDS011;42558;52.388;13.390;2023-01-31T13:40:55;17.48;;;7.03;;
56680;SDS011;42558;52.388;13.390;2023-01-31T13:43:26;21.66;;;6.46;;
56680;SDS011;42558;52.388;13.390;2023-01-31T13:46:07;12.35;;;5.51;;
56680;SDS011;42558;52.388;13.390;2023-01-31T13:48:53;12.73;;;5.70;;
56680;SDS011;42558;52.388;13.390;2023-01-31T13:51:51;18.81;;;5.89;;
56680;SDS011;42558;52.388;13.390;2023-01-31T13:54:39;13.68;;;6.84;;
56680;SDS011;42558;52.388;13.390;2023-01-31T13:57:27;13.68;;;6.27;;
56680;SDS011;42558;52.388;13.390;2023-01-31T14:00:17;17.29;;;6.65;;
56680;SDS011;42558;52.388;13.390;2023-01-31T14:11:01;17.48;;;6.46;;
56680;SDS011;42558;52.388;13.390;2023-01-31T14:13:44;14.63;;;6.46;;
56680;SDS011;42558;52.388;13.390;2023-01-31T14:16:45;13.68;;;5.51;;
56680;SDS011;42558;52.388;13.390;2023-01-31T14:21:51;14.25;;;4.37;;
56680;SDS011;42558;52.388;13.390;2023-01-31T14:27:32;13.30;;;5.70;;
56680;SDS011;42558;52.388;13.390;2023-01-31T14:38:10;15.77;;;7.03;;
56680;SDS011;42558;52.388;13.390;2023-01-31T14:47:30;12.16;;;4.94;;
56680;SDS011;42558;52.388;13.390;2023-01-31T14:50:31;9.88;;;5.32;;
56680;SDS011;42558;52.388;13.390;2023-01-31T14:58:44;12.92;;;5.51;;
56680;SDS011;42558;52.388;13.390;2023-01-31T15:01:19;10.64;;;4.75;;
56680;SDS011;42558;52.388;13.390;2023-01-31T15:03:53;14.63;;;5.89;;
56680;SDS011;42558;52.388;13.390;2023-01-31T15:06:29;12.92;;;5.51;;
56680;SDS011;42558;52.388;13.390;2023-01-31T15:11:49;10.26;;;6.65;;
56680;SDS011;42558;52.388;13.390;2023-01-31T15:14:30;10.26;;;4.75;;
56680;SDS011;42558;52.388;13.390;2023-01-31T15:20:18;13.11;;;5.70;;
56680;SDS011;42558;52.388;13.390;2023-01-31T15:22:53;16.53;;;5.70;;
56680;SDS011;42558;52.388;13.390;2023-01-31T15:25:38;10.45;;;5.51;;
56680;SDS011;42558;52.388;13.390;2023-01-31T15:28:21;12.92;;;5.51;;
56680;SDS011;42558;52.388;13.390;2023-01-31T15:30:58;14.44;;;5.51;;
56680;SDS011;42558;52.388;13.390;2023-01-31T15:33:53;10.64;;;4.75;;
56680;SDS011;42558;52.388;13.390;2023-01-31T15:39:15;9.31;;;4.56;;
56680;SDS011;42558;52.388;13.390;2023-01-31T15:41:49;10.83;;;5.51;;
56680;SDS011;42558;52.388;13.390;2023-01-31T15:46:53;12.35;;;4.94;;
56680;SDS011;42558;52.388;13.390;2023-01-31T15:49:31;13.30;;;5.51;;
56680;SDS011;42558;52.388;13.390;2023-01-31T15:57:22;10.64;;;5.13;;
56680;SDS011;42558;52.388;13.390;2023-01-31T15:59:55;11.78;;;5.89;;
56680;SDS011;42558;52.388;13.390;2023-01-31T16:02:28;10.45;;;6.46;;
56680;SDS011;42558;52.388;13.390;2023-01-31T16:04:59;10.83;;;5.51;;
56680;SDS011;42558;52.388;13.390;2023-01-31T16:07:27;11.97;;;5.70;;
56680;SDS011;42558;52.388;13.390;2023-01-31T16:09:59;9.69;;;5.89;;
56680;SDS011;42558;52.388;13.390;2023-01-31T16:12:30;10.83;;;5.13;;
56680;SDS011;42558;52.388;13.390;2023-01-31T16:15:04;8.55;;;5.32;;
56680;SDS011;42558;52.388;13.390;2023-01-31T16:17:34;9.88;;;5.51;;
56680;SDS011;42558;52.388;13.390;2023-01-31T16:20:04;9.31;;;5.13;;
56680;SDS011;42558;52.388;13.390;2023-01-31T16:22:34;12.16;;;6.08;;
56680;SDS011;42558;52.388;13.390;2023-01-31T16:25:04;15.01;;;6.65;;
56680;SDS011;42558;52.388;13.390;2023-01-31T16:27:36;10.83;;;6.46;;
56680;SDS011;42558;52.388;13.390;2023-01-31T16:30:15;12.54;;;7.22;;
56680;SDS011;42558;52.388;13.390;2023-01-31T16:32:44;16.72;;;7.41;;
56680;SDS011;42558;52.388;13.390;2023-01-31T16:35:24;11.21;;;5.32;;
56680;SDS011;42558;52.388;13.390;2023-01-31T16:40:44;10.64;;;7.03;;
56680;SDS011;42558;52.388;13.390;2023-01-31T16:43:22;11.21;;;6.46;;
56680;SDS011;42558;52.388;13.390;2023-01-31T17:02:11;12.16;;;7.60;;
56680;SDS011;42558;52.388;13.390;2023-01-31T17:04:47;16.34;;;9.69;;
56680;SDS011;42558;52.388;13.390;2023-01-31T17:10:06;13.30;;;8.74;;
56680;SDS011;42558;52.388;13.390;2023-01-31T17:12:38;13.68;;;8.55;;
56680;SDS011;42558;52.388;13.390;2023-01-31T17:15:14;16.91;;;7.98;;
56680;SDS011;42558;52.388;13.390;2023-01-31T17:17:46;17.10;;;9.12;;
56680;SDS011;42558;52.388;13.390;2023-01-31T17:20:18;16.15;;;9.31;;
56680;SDS011;42558;52.388;13.390;2023-01-31T17:22:49;14.25;;;8.74;;
56680;SDS011;42558;52.388;13.390;2023-01-31T17:25:33;17.10;;;10.07;;
56680;SDS011;42558;52.388;13.390;2023-01-31T17:28:05;19.38;;;9.69;;
56680;SDS011;42558;52.388;13.390;2023-01-31T17:30:40;14.63;;;7.79;;
56680;SDS011;42558;52.388;13.390;2023-01-31T17:33:13;13.87;;;9.12;;
56680;SDS011;42558;52.388;13.390;2023-01-31T17:35:45;16.91;;;8.55;;
56680;SDS011;42558;52.388;13.390;2023-01-31T17:38:15;14.82;;;8.93;;
56680;SDS011;42558;52.388;13.390;2023-01-31T17:40:46;14.63;;;7.98;;